createdAt,value
2023-03-30T00:01:06.251Z,50.60
2023-03-30T00:03:34.537Z,50.84
2023-03-30T00:06:03.644Z,52.56
2023-03-30T00:08:31.119Z,53.09
2023-03-30T00:11:12.037Z,52.13
2023-03-30T00:13:39.486Z,53.26
2023-03-30T00:16:09.102Z,52.80
2023-03-30T00:18:37.266Z,51.49
2023-03-30T00:21:05.570Z,51.66
2023-03-30T00:23:33.511Z,51.75
2023-03-30T00:26:00.880Z,51.31
2023-03-30T00:28:30.829Z,51.92
2023-03-30T00:30:58.879Z,51.51
2023-03-30T00:33:41.550Z,51.32
2023-03-30T00:36:12.451Z,51.34
2023-03-30T00:38:40.711Z,52.16
2023-03-30T00:41:09.206Z,51.10
2023-03-30T00:43:58.503Z,52.04
2023-03-30T00:46:26.092Z,52.43
2023-03-30T00:48:57.741Z,50.87
2023-03-30T00:51:26.485Z,51.72
2023-03-30T00:53:55.952Z,52.02
2023-03-30T00:56:27.100Z,51.74
2023-03-30T00:58:55.506Z,52.19
2023-03-30T01:01:28.596Z,51.02
2023-03-30T01:04:03.731Z,51.14
2023-03-30T01:06:31.687Z,51.59
2023-03-30T01:08:59.366Z,53.01
2023-03-30T01:11:26.841Z,52.32
2023-03-30T01:13:58.414Z,52.20
2023-03-30T01:16:47.345Z,51.13
2023-03-30T01:19:45.330Z,51.71
2023-03-30T01:22:32.342Z,51.72
2023-03-30T01:25:18.473Z,51.42
2023-03-30T01:27:49.728Z,51.36
2023-03-30T01:30:20.273Z,51.03
2023-03-30T01:32:56.973Z,51.92
2023-03-30T01:35:49.607Z,51.43
2023-03-30T01:38:26.342Z,52.26
2023-03-30T01:41:09.854Z,52.00
2023-03-30T01:43:53.729Z,51.97
2023-03-30T01:46:26.711Z,52.57
2023-03-30T01:49:03.372Z,52.91
2023-03-30T01:51:33.872Z,52.63
2023-03-30T01:54:12.662Z,52.67
2023-03-30T01:56:57.330Z,52.41
2023-03-30T01:59:27.063Z,53.00
2023-03-30T02:02:00.489Z,53.16
2023-03-30T02:04:28.436Z,53.23
2023-03-30T02:06:59.601Z,53.05
2023-03-30T02:09:26.956Z,53.82
2023-03-30T02:11:55.455Z,55.68
2023-03-30T02:14:31.040Z,54.39
2023-03-30T02:17:12.108Z,53.22
2023-03-30T02:19:39.787Z,53.33
2023-03-30T02:22:08.684Z,54.53
2023-03-30T02:24:36.138Z,53.90
2023-03-30T02:27:03.886Z,55.07
2023-03-30T02:29:31.695Z,53.93
2023-03-30T02:32:01.028Z,52.77
2023-03-30T02:34:47.128Z,53.33
2023-03-30T02:37:18.266Z,53.46
2023-03-30T02:40:13.350Z,53.84
2023-03-30T02:43:00.133Z,54.20
2023-03-30T02:45:42.849Z,56.83
2023-03-30T02:48:20.988Z,55.89
2023-03-30T02:50:57.945Z,55.04
2023-03-30T02:53:53.540Z,54.53
2023-03-30T02:56:44.569Z,55.50
2023-03-30T02:59:14.006Z,54.73
2023-03-30T03:02:02.150Z,53.91
2023-03-30T03:04:29.883Z,54.46
2023-03-30T03:06:59.136Z,55.18
2023-03-30T03:09:26.783Z,54.98
2023-03-30T03:11:54.168Z,53.85
2023-03-30T03:14:26.573Z,53.08
2023-03-30T03:16:54.894Z,53.21
2023-03-30T03:19:23.328Z,54.78
2023-03-30T03:21:51.721Z,54.39
2023-03-30T03:24:19.397Z,54.68
2023-03-30T03:26:47.327Z,54.25
2023-03-30T03:29:15.171Z,54.14
2023-03-30T03:31:42.543Z,53.16
2023-03-30T03:34:10.229Z,55.07
2023-03-30T03:36:40.983Z,53.42
2023-03-30T03:39:08.416Z,52.66
2023-03-30T03:41:36.212Z,52.56
2023-03-30T03:44:03.573Z,52.77
2023-03-30T03:46:31.209Z,52.63
2023-03-30T03:48:58.964Z,53.84
2023-03-30T03:51:26.310Z,54.04
2023-03-30T03:53:53.918Z,53.81
2023-03-30T03:56:21.900Z,54.49
2023-03-30T03:58:49.247Z,53.68
2023-03-30T04:01:16.687Z,53.03
2023-03-30T04:03:44.389Z,52.99
2023-03-30T04:06:11.849Z,53.62
2023-03-30T04:08:39.553Z,53.22
2023-03-30T04:11:12.158Z,54.36
2023-03-30T04:13:40.353Z,53.23
2023-03-30T04:16:08.547Z,53.24
2023-03-30T04:18:36.288Z,53.43
2023-03-30T04:21:05.518Z,53.29
2023-03-30T04:23:34.358Z,53.87
2023-03-30T04:26:06.375Z,54.80
2023-03-30T04:28:35.267Z,53.93
2023-03-30T04:31:04.407Z,54.24
2023-03-30T04:33:38.021Z,54.47
2023-03-30T04:36:06.070Z,53.82
2023-03-30T04:38:36.532Z,53.27
2023-03-30T04:41:05.694Z,54.05
2023-03-30T04:43:33.810Z,53.68
2023-03-30T04:46:01.777Z,53.22
2023-03-30T04:48:29.717Z,52.93
2023-03-30T04:50:58.181Z,52.37
2023-03-30T04:53:26.026Z,52.07
2023-03-30T04:55:54.385Z,51.97
2023-03-30T04:58:22.098Z,51.53
2023-03-30T05:00:49.743Z,52.20
2023-03-30T05:03:18.467Z,51.55
2023-03-30T05:05:47.494Z,51.44
2023-03-30T05:08:15.106Z,51.40
2023-03-30T05:10:43.544Z,51.39
2023-03-30T05:13:11.484Z,50.83
2023-03-30T05:15:39.804Z,50.30
2023-03-30T05:18:08.135Z,49.42
2023-03-30T05:20:36.293Z,49.72
2023-03-30T05:23:04.179Z,50.08
2023-03-30T05:25:32.130Z,49.99
2023-03-30T05:27:59.871Z,49.89
2023-03-30T05:30:27.830Z,49.38
2023-03-30T05:32:55.659Z,49.04
2023-03-30T05:35:26.086Z,48.38
2023-03-30T05:37:55.611Z,48.54
2023-03-30T05:40:23.874Z,48.25
2023-03-30T05:42:51.652Z,48.11
2023-03-30T05:45:20.376Z,47.71
2023-03-30T05:47:49.007Z,47.41
2023-03-30T05:50:17.029Z,47.29
2023-03-30T05:52:44.615Z,46.79
2023-03-30T05:55:12.500Z,46.64
2023-03-30T05:57:40.184Z,46.06
2023-03-30T06:00:10.161Z,45.39
2023-03-30T06:02:40.102Z,45.58
2023-03-30T06:05:09.225Z,44.41
2023-03-30T06:07:37.557Z,43.92
2023-03-30T06:10:06.564Z,42.75
2023-03-30T06:12:35.321Z,42.24
2023-03-30T06:15:03.440Z,41.89
2023-03-30T06:17:31.543Z,42.51
2023-03-30T06:19:59.290Z,42.45
2023-03-30T06:22:28.042Z,41.85
2023-03-30T06:24:57.233Z,41.82
2023-03-30T06:27:24.915Z,41.50
2023-03-30T06:29:53.139Z,41.45
2023-03-30T06:32:21.108Z,41.40
2023-03-30T06:34:50.386Z,40.86
2023-03-30T06:37:23.045Z,40.86
2023-03-30T06:39:50.841Z,43.37
2023-03-30T06:42:18.304Z,43.24
2023-03-30T06:44:49.348Z,43.72
2023-03-30T06:47:19.434Z,41.93
2023-03-30T06:49:47.060Z,41.14
2023-03-30T06:52:15.799Z,41.84
2023-03-30T06:54:43.629Z,41.47
2023-03-30T06:57:11.049Z,43.48
2023-03-30T06:59:39.568Z,42.92
2023-03-30T07:02:14.675Z,42.55
2023-03-30T07:04:46.907Z,43.42
2023-03-30T07:07:15.250Z,43.58
2023-03-30T07:09:42.950Z,44.04
2023-03-30T07:12:10.654Z,43.97
2023-03-30T07:14:38.327Z,43.29
2023-03-30T07:17:07.945Z,43.50
2023-03-30T07:19:36.594Z,43.05
2023-03-30T07:22:04.258Z,43.28
2023-03-30T07:24:33.647Z,42.52
2023-03-30T07:27:01.147Z,42.33
2023-03-30T07:29:29.331Z,42.08
2023-03-30T07:31:57.395Z,41.32
2023-03-30T07:34:25.243Z,41.02
2023-03-30T07:36:54.678Z,40.96
2023-03-30T07:39:22.870Z,40.90
2023-03-30T07:41:50.814Z,40.31
2023-03-30T07:44:18.870Z,39.40
2023-03-30T07:46:46.458Z,40.19
2023-03-30T07:49:14.605Z,40.08
2023-03-30T07:51:42.364Z,39.04
2023-03-30T07:54:10.444Z,38.99
2023-03-30T07:56:39.714Z,39.34
2023-03-30T07:59:08.179Z,39.77
2023-03-30T08:01:36.157Z,39.40
2023-03-30T08:04:04.278Z,39.43
2023-03-30T08:06:33.193Z,38.94
2023-03-30T08:09:01.361Z,39.23
2023-03-30T08:11:29.061Z,39.27
2023-03-30T08:13:57.522Z,38.54
2023-03-30T08:16:25.030Z,37.93
2023-03-30T08:18:55.344Z,37.46
2023-03-30T08:21:25.570Z,37.46
2023-03-30T08:23:55.094Z,37.92
2023-03-30T08:26:22.420Z,37.36
2023-03-30T08:28:49.960Z,37.65
2023-03-30T08:31:18.367Z,37.84
2023-03-30T08:33:45.918Z,37.74
2023-03-30T08:36:13.917Z,38.21
2023-03-30T08:38:41.676Z,38.36
2023-03-30T08:41:30.106Z,38.39
2023-03-30T08:43:57.780Z,38.15
2023-03-30T08:46:25.425Z,39.03
2023-03-30T08:48:52.858Z,39.11
2023-03-30T08:51:31.520Z,39.43
2023-03-30T08:54:06.135Z,38.16
2023-03-30T08:56:35.759Z,38.67
2023-03-30T08:59:40.288Z,39.01
2023-03-30T09:02:23.462Z,37.39
2023-03-30T09:05:04.766Z,37.52
2023-03-30T09:07:45.370Z,38.24
2023-03-30T09:10:13.972Z,37.44
2023-03-30T09:12:50.522Z,36.72
2023-03-30T09:15:19.967Z,37.29
2023-03-30T09:17:51.373Z,36.89
2023-03-30T09:20:22.157Z,36.11
2023-03-30T09:22:50.242Z,36.95
2023-03-30T09:25:26.362Z,34.69
2023-03-30T09:28:17.156Z,34.94
2023-03-30T09:30:59.151Z,33.82
2023-03-30T09:33:35.948Z,34.64
2023-03-30T09:36:21.381Z,34.89
2023-03-30T09:38:49.340Z,34.59
2023-03-30T09:41:21.847Z,34.71
2023-03-30T09:43:49.679Z,36.30
2023-03-30T09:46:17.264Z,35.49
2023-03-30T09:48:48.377Z,36.20
2023-03-30T09:51:24.224Z,35.84
2023-03-30T09:53:54.019Z,36.53
2023-03-30T09:56:28.546Z,36.98
2023-03-30T09:58:56.261Z,37.27
2023-03-30T10:01:24.257Z,37.60
2023-03-30T10:04:11.645Z,37.99
2023-03-30T10:06:48.928Z,37.80
2023-03-30T10:09:18.046Z,37.89
2023-03-30T10:11:47.911Z,38.30
2023-03-30T10:14:35.598Z,37.52
2023-03-30T10:17:04.153Z,37.19
2023-03-30T10:19:36.202Z,36.06
2023-03-30T10:22:06.729Z,35.70
2023-03-30T10:24:34.117Z,36.47
2023-03-30T10:27:07.479Z,35.65
2023-03-30T10:29:35.330Z,36.05
2023-03-30T10:32:27.505Z,36.35
2023-03-30T10:34:56.502Z,36.06
2023-03-30T10:37:34.210Z,35.75
2023-03-30T10:40:05.558Z,35.25
2023-03-30T10:42:33.005Z,35.00
2023-03-30T10:45:05.676Z,35.19
2023-03-30T10:48:00.151Z,34.64
2023-03-30T10:51:06.760Z,34.47
2023-03-30T10:53:56.882Z,36.18
2023-03-30T10:57:03.999Z,36.14
2023-03-30T11:00:00.209Z,35.65
2023-03-30T11:02:43.964Z,35.40
2023-03-30T11:05:17.571Z,35.15
2023-03-30T11:07:50.094Z,35.35
2023-03-30T11:10:20.589Z,35.25
2023-03-30T11:12:52.406Z,35.05
2023-03-30T11:15:27.169Z,35.93
2023-03-30T11:18:02.402Z,36.44
2023-03-30T11:20:35.916Z,36.63
2023-03-30T11:23:11.817Z,36.52
2023-03-30T11:25:51.908Z,36.99
2023-03-30T11:28:25.978Z,36.75
2023-03-30T11:30:54.791Z,36.39
2023-03-30T11:33:36.659Z,36.04
2023-03-30T11:36:18.695Z,35.73
2023-03-30T11:39:07.071Z,35.55
2023-03-30T11:41:48.817Z,35.74
2023-03-30T11:44:16.577Z,35.42
2023-03-30T11:47:00.472Z,35.50
2023-03-30T11:49:37.018Z,34.83
2023-03-30T11:52:26.447Z,35.25
2023-03-30T11:55:42.499Z,35.16
2023-03-30T11:58:20.268Z,35.96
2023-03-30T12:00:59.845Z,36.19
2023-03-30T12:03:33.553Z,36.34
2023-03-30T12:06:23.880Z,36.66
2023-03-30T12:09:07.268Z,37.50
2023-03-30T12:12:07.758Z,37.54
2023-03-30T12:15:12.688Z,37.12
2023-03-30T12:18:08.330Z,36.88
2023-03-30T12:20:44.477Z,36.97
2023-03-30T12:23:35.130Z,37.06
2023-03-30T12:26:10.328Z,36.80
2023-03-30T12:31:17.668Z,36.23
2023-03-30T12:33:51.063Z,36.00
2023-03-30T12:37:13.181Z,35.84
2023-03-30T12:39:53.631Z,35.81
2023-03-30T12:42:34.908Z,35.50
2023-03-30T12:45:23.802Z,35.72
2023-03-30T12:48:24.646Z,36.02
2023-03-30T12:51:22.028Z,35.76
2023-03-30T12:54:14.512Z,36.66
2023-03-30T12:57:10.081Z,37.11
2023-03-30T12:59:53.345Z,36.45
2023-03-30T13:02:51.951Z,35.93
2023-03-30T13:05:31.770Z,35.81
2023-03-30T13:08:03.705Z,35.61
2023-03-30T13:10:31.752Z,35.89
2023-03-30T13:13:00.118Z,35.71
2023-03-30T13:15:40.591Z,35.70
2023-03-30T13:18:08.054Z,35.71
2023-03-30T13:20:55.732Z,36.11
2023-03-30T13:23:23.345Z,35.99
2023-03-30T13:26:05.661Z,36.36
2023-03-30T13:28:55.965Z,36.12
2023-03-30T13:31:41.689Z,36.49
2023-03-30T13:34:22.170Z,36.41
2023-03-30T13:37:16.544Z,37.33
2023-03-30T13:40:11.015Z,37.20
2023-03-30T13:42:50.772Z,38.16
2023-03-30T13:45:40.882Z,38.52
2023-03-30T13:48:10.850Z,38.52
2023-03-30T13:50:38.743Z,39.13
2023-03-30T13:53:09.911Z,40.13
2023-03-30T13:55:39.163Z,39.85
2023-03-30T13:58:14.740Z,39.60
2023-03-30T14:00:49.034Z,39.78
2023-03-30T14:03:29.776Z,38.81
2023-03-30T14:06:02.788Z,39.32
2023-03-30T14:08:35.735Z,39.53
2023-03-30T14:11:05.443Z,39.64
2023-03-30T14:13:33.689Z,39.99
2023-03-30T14:16:01.086Z,39.45
2023-03-30T14:18:28.524Z,39.95
2023-03-30T14:20:57.502Z,39.79
2023-03-30T14:23:36.597Z,39.29
2023-03-30T14:26:06.564Z,39.94
2023-03-30T14:28:35.540Z,39.62
2023-03-30T14:31:05.014Z,40.14
2023-03-30T14:33:33.022Z,40.57
2023-03-30T14:36:00.555Z,39.93
2023-03-30T14:38:43.779Z,40.41
2023-03-30T14:41:24.681Z,39.62
2023-03-30T14:44:04.969Z,40.43
2023-03-30T14:46:49.371Z,40.79
2023-03-30T14:49:18.456Z,40.65
2023-03-30T14:51:47.452Z,40.23
2023-03-30T14:54:21.967Z,41.43
2023-03-30T14:56:57.834Z,40.95
2023-03-30T14:59:26.419Z,44.63
2023-03-30T15:01:54.788Z,44.28
2023-03-30T15:04:24.342Z,43.95
2023-03-30T15:06:52.600Z,46.12
2023-03-30T15:09:22.080Z,43.78
2023-03-30T15:11:53.396Z,45.21
2023-03-30T15:14:22.327Z,45.05
2023-03-30T15:16:53.650Z,45.40
2023-03-30T15:19:29.708Z,44.80
2023-03-30T15:22:00.021Z,47.20
2023-03-30T15:24:32.852Z,47.95
2023-03-30T15:27:02.393Z,47.26
2023-03-30T15:29:30.024Z,45.70
2023-03-30T15:32:07.626Z,45.46
2023-03-30T15:34:35.229Z,45.39
2023-03-30T15:37:02.599Z,44.77
2023-03-30T15:39:34.381Z,45.27
2023-03-30T15:42:07.721Z,44.94
2023-03-30T15:44:38.929Z,45.16
2023-03-30T15:47:18.304Z,46.26
2023-03-30T15:49:47.870Z,45.53
2023-03-30T15:52:26.740Z,45.32
2023-03-30T15:54:55.309Z,46.29
2023-03-30T15:57:32.475Z,48.34
2023-03-30T16:00:01.826Z,48.53
2023-03-30T16:02:32.256Z,49.14
2023-03-30T16:05:03.889Z,48.52
2023-03-30T16:07:31.429Z,51.05
2023-03-30T16:09:58.867Z,52.02
2023-03-30T16:12:28.890Z,53.67
2023-03-30T16:14:56.368Z,54.24
2023-03-30T16:17:23.729Z,55.04
2023-03-30T16:19:51.365Z,55.98
2023-03-30T16:22:18.721Z,57.73
2023-03-30T16:24:47.637Z,58.34
2023-03-30T16:27:15.398Z,59.10
2023-03-30T16:29:43.451Z,58.13
2023-03-30T16:32:10.926Z,59.22
2023-03-30T16:34:39.364Z,59.62
2023-03-30T16:37:08.939Z,60.67
2023-03-30T16:39:36.625Z,61.06
2023-03-30T16:42:04.282Z,62.34
2023-03-30T16:44:31.605Z,62.62
2023-03-30T16:46:59.008Z,62.79
2023-03-30T16:49:26.667Z,63.19
2023-03-30T16:51:57.588Z,63.11
2023-03-30T16:54:31.128Z,63.97
2023-03-30T16:57:00.352Z,62.95
2023-03-30T16:59:30.198Z,63.50
2023-03-30T17:01:57.880Z,64.09
2023-03-30T17:04:25.952Z,64.43
2023-03-30T17:06:56.267Z,63.89
2023-03-30T17:09:23.845Z,64.40
2023-03-30T17:11:51.665Z,65.24
2023-03-30T17:14:20.756Z,65.21
2023-03-30T17:16:48.217Z,65.37
2023-03-30T17:19:15.928Z,65.35
2023-03-30T17:21:43.877Z,65.15
2023-03-30T17:24:12.834Z,66.11
2023-03-30T17:26:41.312Z,65.99
2023-03-30T17:29:09.692Z,66.02
2023-03-30T17:31:38.398Z,66.05
2023-03-30T17:34:07.076Z,65.95
2023-03-30T17:36:34.445Z,66.28
2023-03-30T17:39:05.159Z,66.22
2023-03-30T17:41:36.183Z,66.35
2023-03-30T17:44:03.568Z,66.47
2023-03-30T17:46:30.957Z,67.20
2023-03-30T17:48:59.889Z,67.63
2023-03-30T17:51:27.243Z,66.87
2023-03-30T17:53:54.618Z,66.80
2023-03-30T17:56:22.343Z,67.10
2023-03-30T17:58:49.810Z,67.20
2023-03-30T18:01:17.259Z,66.82
2023-03-30T18:03:45.095Z,66.76
2023-03-30T18:06:13.151Z,66.67
2023-03-30T18:08:40.684Z,66.83
2023-03-30T18:11:08.487Z,65.16
2023-03-30T18:13:36.972Z,65.64
2023-03-30T18:16:04.552Z,66.12
2023-03-30T18:18:32.364Z,66.10
2023-03-30T18:21:02.860Z,66.50
2023-03-30T18:23:31.496Z,66.26
2023-03-30T18:25:59.184Z,65.96
2023-03-30T18:28:27.084Z,69.74
2023-03-30T18:30:57.267Z,70.87
2023-03-30T18:33:25.199Z,69.04
2023-03-30T18:35:52.998Z,68.07
2023-03-30T18:38:21.229Z,67.62
2023-03-30T18:40:50.180Z,67.76
2023-03-30T18:43:17.972Z,67.32
2023-03-30T18:45:46.384Z,67.56
2023-03-30T18:48:16.116Z,67.76
2023-03-30T18:50:44.548Z,67.31
2023-03-30T18:53:13.659Z,68.52
2023-03-30T18:55:43.224Z,67.94
2023-03-30T18:58:15.506Z,69.56
2023-03-30T19:00:43.146Z,71.06
2023-03-30T19:03:11.184Z,69.94
2023-03-30T19:05:39.698Z,68.79
2023-03-30T19:08:10.655Z,68.89
2023-03-30T19:10:38.657Z,68.23
2023-03-30T19:13:06.088Z,68.62
2023-03-30T19:15:35.100Z,68.29
2023-03-30T19:18:03.092Z,70.75
2023-03-30T19:20:31.942Z,69.77
2023-03-30T19:22:59.534Z,69.06
2023-03-30T19:25:27.482Z,68.95
2023-03-30T19:28:03.263Z,69.33
2023-03-30T19:30:33.613Z,68.76
2023-03-30T19:33:03.893Z,69.04
2023-03-30T19:35:31.764Z,68.60
2023-03-30T19:37:59.177Z,69.02
2023-03-30T19:40:26.594Z,70.07
2023-03-30T19:42:54.263Z,69.65
2023-03-30T19:45:21.756Z,69.40
2023-03-30T19:47:49.159Z,69.75
2023-03-30T19:50:18.437Z,68.95
2023-03-30T19:52:48.581Z,71.16
2023-03-30T19:55:16.767Z,70.46
2023-03-30T19:57:44.494Z,70.32
2023-03-30T20:00:12.818Z,69.88
2023-03-30T20:02:41.120Z,69.50
2023-03-30T20:05:15.837Z,68.67
2023-03-30T20:07:44.488Z,70.51
2023-03-30T20:10:16.640Z,69.94
2023-03-30T20:12:44.321Z,69.82
2023-03-30T20:15:11.761Z,69.37
2023-03-30T20:17:39.312Z,69.48
2023-03-30T20:20:09.012Z,69.21
2023-03-30T20:22:37.242Z,69.50
2023-03-30T20:25:07.381Z,70.17
2023-03-30T20:27:35.581Z,70.27
2023-03-30T20:30:03.439Z,70.38
2023-03-30T20:32:31.011Z,68.68
2023-03-30T20:34:58.696Z,69.11
2023-03-30T20:37:26.038Z,69.95
2023-03-30T20:39:53.412Z,71.40
2023-03-30T20:42:26.167Z,71.82
2023-03-30T20:44:54.290Z,72.74
2023-03-30T20:47:26.082Z,73.07
2023-03-30T20:49:56.619Z,73.43
2023-03-30T20:52:24.215Z,73.32
2023-03-30T20:54:52.628Z,73.53
2023-03-30T20:57:20.616Z,73.56
2023-03-30T20:59:49.029Z,72.73
2023-03-30T21:02:16.510Z,72.24
2023-03-30T21:04:44.674Z,72.32
2023-03-30T21:07:12.629Z,71.65
2023-03-30T21:09:39.988Z,72.08
2023-03-30T21:12:08.326Z,71.79
2023-03-30T21:14:35.984Z,71.87
2023-03-30T21:17:03.414Z,71.99
2023-03-30T21:19:30.833Z,71.79
2023-03-30T21:22:00.250Z,74.49
2023-03-30T21:24:28.085Z,72.47
2023-03-30T21:26:55.478Z,75.93
2023-03-30T21:29:23.236Z,74.87
2023-03-30T21:31:50.716Z,74.19
2023-03-30T21:34:18.846Z,74.58
2023-03-30T21:36:46.753Z,73.85
2023-03-30T21:39:14.197Z,74.54
2023-03-30T21:41:41.669Z,74.00
2023-03-30T21:44:09.332Z,75.38
2023-03-30T21:46:36.797Z,76.42
2023-03-30T21:49:04.176Z,78.88
2023-03-30T21:51:31.981Z,76.75
2023-03-30T21:53:59.491Z,75.26
2023-03-30T21:56:28.979Z,76.22
2023-03-30T21:58:57.411Z,78.25
2023-03-30T22:01:24.920Z,77.98
2023-03-30T22:03:53.511Z,76.82
2023-03-30T22:06:21.154Z,77.12
2023-03-30T22:08:48.490Z,76.75
2023-03-30T22:11:18.042Z,77.43
2023-03-30T22:13:47.607Z,76.36
2023-03-30T22:16:16.881Z,76.55
2023-03-30T22:18:44.462Z,77.44
2023-03-30T22:21:13.405Z,75.94
2023-03-30T22:23:41.242Z,75.46
2023-03-30T22:26:08.753Z,76.09
2023-03-30T22:28:36.122Z,75.10
2023-03-30T22:31:10.839Z,75.24
2023-03-30T22:33:38.325Z,75.53
2023-03-30T22:36:07.175Z,74.15
2023-03-30T22:38:34.954Z,74.19
2023-03-30T22:41:06.505Z,73.88
2023-03-30T22:43:35.795Z,72.92
2023-03-30T22:46:04.671Z,75.60
2023-03-30T22:48:32.428Z,75.30
2023-03-30T22:51:03.769Z,74.92
2023-03-30T22:53:31.731Z,74.56
2023-03-30T22:55:59.118Z,73.80
2023-03-30T22:58:26.792Z,73.24
2023-03-30T23:00:59.871Z,74.46
2023-03-30T23:03:27.706Z,73.16
2023-03-30T23:05:55.885Z,73.33
2023-03-30T23:08:23.993Z,72.96
2023-03-30T23:10:51.864Z,72.23
2023-03-30T23:13:19.199Z,71.76
2023-03-30T23:15:48.626Z,72.27
2023-03-30T23:18:16.549Z,71.05
2023-03-30T23:20:46.671Z,71.94
2023-03-30T23:23:14.435Z,72.28
2023-03-30T23:25:51.597Z,72.57
2023-03-30T23:28:19.098Z,72.70
2023-03-30T23:30:46.770Z,75.59
2023-03-30T23:33:14.119Z,74.94
2023-03-30T23:35:48.496Z,73.52
2023-03-30T23:38:17.039Z,73.44
2023-03-30T23:40:44.486Z,73.50
2023-03-30T23:43:11.846Z,73.69
2023-03-30T23:45:39.574Z,73.72
2023-03-30T23:48:07.231Z,73.62
2023-03-30T23:50:36.596Z,73.27
2023-03-30T23:53:04.262Z,73.51
2023-03-30T23:55:33.634Z,72.66
2023-03-30T23:58:01.328Z,72.35
